Aérodrome :
LOGIN :

S'inscrire | Disclaimer

   EN    FR    IT 

 










Légende :    VFR   VFR Marginal   IFR   IFR Intensif   IFR Très Intensif
Visi : 
Plafond : 
>= 8 km
>= 3000ft
5 à 8 km
1000 à 3000 ft
1500m à 5 km
500 à 1000 ft
800 à 1500m
200 à 500 ft
< 800m
< 200 ft
Symboles :   Orages  Brouillard  Fortes neiges  Fortes précipitations  Vent > 20 kt
SIGMETs :   Divers  Orages  Givrage  Turbulence  Onde Orograph.  Cendres Volcan.






- Altitude de l'aérodrome : 1411 ft
- Code IATA : SZG


LOWS - Salzburg

DERNIER METAR :
  • 121850Z 16004KT 9999 -SN FEW005 SCT027 BKN040 00/M00 Q1002 R15/2///95 NOSIG

METARs EXPIRÉS :
  • 121820Z 15003KT 9999 -SN FEW007 SCT025 BKN040 00/M00 Q1003 R15/2///95 NOSIG
  • 121750Z 14003KT 8000 -SN FEW007 SCT023 BKN035 00/M00 Q1003 R15/2///95 NOSIG
  • 121720Z 16005KT 8000 -RASN FEW007 SCT020 BKN034 00/M00 Q1003 R15/2///95 NOSIG
  • 121650Z 14003KT 8000 -SN FEW007 SCT020 BKN030 01/M00 Q1003 R15/2///95 NOSIG
  • 121620Z VRB02KT 9999 -SN FEW008 SCT021 BKN030 01/M00 Q1003 R15/2///95 NOSIG

TAF TAF LOWS
Valide du 12 à 18h jusqu'au 13 à 18h UTC


121715Z 1218/1318 15006KT 9999 SCT025 BKN050 TX03/1316Z TNM02/1306Z
PROB30
TEMPO 1218/1220 4000 -SN BR SCT012 BKN020
BECMG 1221/1223 FEW050 SCT120
TEMPO 1311/1318 8000 -SHRA SCT035 BKN060



MET'MAP, la Météo Aéronautique d'un coup d'oeil ! - Copyright ORBIFLY Décembre 2007 - Disclaimer

ORBIFLY MET'MAP TEAM :

Programmation & Développement : Alexandra Zaïnal
Sur une idée originale de : Baudouin d'Aumeries
Assistance à la programmation : Marc-Olivier Méhu
Soutien technique & logistique : Manuel Goepfert

Contact : metmap@orbifly.com




SOURCES & CREDITS :

   NOAA